Time;durP1;ratioP1;P1;durP2;ratioP2;P2;SDS_P1;SDS_P2;PMS_P1;PMS_P2;Temp;Humidity;BMP_temperature;BMP_pressure;BME280_temperature;BME280_humidity;BME280_pressure;Samples;Min_cycle;Max_cycle;Signal;HPM_P1;HPM_P2
2021/10/05 00:02:23;;;;;;;;;;;17.80;72.70;;;;;;4979182;28;98485;-50
2021/10/05 00:04:55;;;;;;;;;;;17.90;72.70;;;;;;4986733;28;95546;-50
2021/10/05 00:07:25;;;;;;;;;;;18.00;72.70;;;;;;4985383;28;97910;-51
2021/10/05 00:09:55;;;;;;;;;;;18.00;72.50;;;;;;4982159;28;95834;-59
2021/10/05 00:12:26;;;;;;;;;;;18.00;73.00;;;;;;4980212;28;96492;-59
2021/10/05 00:14:57;;;;;;;;;;;18.10;72.40;;;;;;4985738;28;96191;-50
2021/10/05 00:17:27;;;;;;;;;;;18.10;72.10;;;;;;4982656;28;95850;-51
2021/10/05 00:19:57;;;;;;;;;;;18.20;72.00;;;;;;4987181;28;95543;-61
2021/10/05 00:22:28;;;;;;;;;;;18.20;72.00;;;;;;4986221;28;95838;-61
2021/10/05 00:24:57;;;;;;;;;;;18.20;71.80;;;;;;4982603;28;95921;-62
2021/10/05 00:27:28;;;;;;;;;;;18.20;71.90;;;;;;4987206;28;95551;-53
2021/10/05 00:29:58;;;;;;;;;;;18.30;72.00;;;;;;4987633;28;96309;-63
2021/10/05 00:32:28;;;;;;;;;;;18.30;72.00;;;;;;4985296;28;96437;-63
2021/10/05 00:34:57;;;;;;;;;;;18.30;71.80;;;;;;4986200;28;95728;-53
2021/10/05 00:37:27;;;;;;;;;;;18.50;71.30;;;;;;4985197;28;95942;-50
2021/10/05 00:39:58;;;;;;;;;;;18.50;70.60;;;;;;4985520;28;96277;-63
2021/10/05 00:42:28;;;;;;;;;;;18.50;70.70;;;;;;4980209;28;95886;-49
2021/10/05 00:44:59;;;;;;;;;;;18.50;71.00;;;;;;4986871;28;95896;-50
2021/10/05 00:47:31;;;;;;;;;;;18.60;71.20;;;;;;4983322;28;95770;-52
2021/10/05 00:50:01;;;;;;;;;;;18.60;71.20;;;;;;4990067;28;96224;-54
2021/10/05 00:52:32;;;;;;;;;;;18.60;71.10;;;;;;4981255;28;95844;-61
2021/10/05 00:55:04;;;;;;;;;;;18.70;71.30;;;;;;4984892;28;95748;-53
2021/10/05 00:57:50;;;;;;;;;;;18.70;71.20;;;;;;4987829;28;95657;-60
2021/10/05 01:00:24;;;;;;;;;;;18.70;71.20;;;;;;4985432;28;95828;-53
2021/10/05 01:02:56;;;;;;;;;;;18.70;71.20;;;;;;5020089;27;95827;-61
2021/10/05 01:05:27;;;;;;;;;;;18.70;71.20;;;;;;4988354;28;96037;-50
2021/10/05 01:07:58;;;;;;;;;;;18.80;71.20;;;;;;4989233;28;95929;-50
2021/10/05 01:10:29;;;;;;;;;;;18.80;71.20;;;;;;4998146;28;95421;-50
2021/10/05 01:13:00;;;;;;;;;;;18.90;71.20;;;;;;4978466;28;95946;-62
2021/10/05 01:15:35;;;;;;;;;;;18.90;71.20;;;;;;4983455;28;96501;-54
2021/10/05 01:18:06;;;;;;;;;;;18.90;71.10;;;;;;4980062;28;97102;-49
2021/10/05 01:20:52;;;;;;;;;;;19.00;71.20;;;;;;4980363;28;95745;-51
2021/10/05 01:23:24;;;;;;;;;;;19.00;71.20;;;;;;4977990;28;95786;-62
2021/10/05 01:25:53;;;;;;;;;;;19.00;71.10;;;;;;4984420;28;95848;-51
2021/10/05 01:28:24;;;;;;;;;;;19.10;71.20;;;;;;4988976;28;95671;-52
2021/10/05 01:30:55;;;;;;;;;;;19.10;71.20;;;;;;4983330;28;95942;-59
2021/10/05 01:33:29;;;;;;;;;;;19.10;71.10;;;;;;4987875;28;95758;-62
2021/10/05 01:36:00;;;;;;;;;;;19.10;71.10;;;;;;4989820;28;95298;-49
2021/10/05 01:38:31;;;;;;;;;;;19.20;71.00;;;;;;4988545;28;95351;-62
2021/10/05 01:41:01;;;;;;;;;;;19.20;71.00;;;;;;4989201;28;95706;-52
2021/10/05 01:43:32;;;;;;;;;;;19.20;70.90;;;;;;4988595;28;96652;-62
2021/10/05 01:46:04;;;;;;;;;;;19.30;70.90;;;;;;4978136;28;95790;-62
2021/10/05 01:48:33;;;;;;;;;;;19.30;70.80;;;;;;4986662;28;95760;-52
2021/10/05 01:51:03;;;;;;;;;;;19.30;70.80;;;;;;4988659;28;95634;-50
2021/10/05 01:53:37;;;;;;;;;;;19.30;70.80;;;;;;4986158;28;95886;-61
2021/10/05 01:56:07;;;;;;;;;;;19.30;67.50;;;;;;4986397;28;97372;-54
2021/10/05 01:58:37;;;;;;;;;;;19.20;67.40;;;;;;4988639;28;95886;-60
2021/10/05 02:01:08;;;;;;;;;;;19.00;63.70;;;;;;5016418;27;95391;-48
2021/10/05 02:03:39;;;;;;;;;;;18.80;63.80;;;;;;4986476;28;95945;-48
2021/10/05 02:06:09;;;;;;;;;;;18.60;62.90;;;;;;4983196;28;96048;-58
2021/10/05 02:08:40;;;;;;;;;;;18.50;63.20;;;;;;4997990;28;95576;-58
2021/10/05 02:11:11;;;;;;;;;;;18.40;63.30;;;;;;4980723;28;95409;-57
2021/10/05 02:13:42;;;;;;;;;;;18.40;64.90;;;;;;4981714;28;96496;-51
2021/10/05 02:16:13;;;;;;;;;;;18.20;63.00;;;;;;5014322;27;96119;-58
2021/10/05 02:18:46;;;;;;;;;;;18.20;63.80;;;;;;4988470;28;95331;-50
2021/10/05 02:21:18;;;;;;;;;;;18.20;63.00;;;;;;4987066;28;96309;-58
2021/10/05 02:26:37;;;;;;;;;;;18.00;61.60;;;;;;4983492;28;96092;-58
2021/10/05 02:29:08;;;;;;;;;;;17.90;61.70;;;;;;5008829;27;95753;-48
2021/10/05 02:31:38;;;;;;;;;;;17.90;62.90;;;;;;4972401;28;95678;-58
2021/10/05 02:34:12;;;;;;;;;;;17.90;61.80;;;;;;4984143;28;98882;-57
2021/10/05 02:36:43;;;;;;;;;;;17.90;63.30;;;;;;4983314;28;95894;-49
2021/10/05 02:39:13;;;;;;;;;;;17.90;60.70;;;;;;4987285;28;95785;-47
2021/10/05 02:41:45;;;;;;;;;;;17.90;62.60;;;;;;4988294;28;95729;-49
2021/10/05 02:44:16;;;;;;;;;;;17.80;61.70;;;;;;4988210;28;95827;-59
2021/10/05 02:46:46;;;;;;;;;;;17.80;52.00;;;;;;4981022;28;95835;-62
2021/10/05 02:49:17;;;;;;;;;;;17.70;62.60;;;;;;4988040;28;95755;-62
2021/10/05 02:51:48;;;;;;;;;;;17.60;61.50;;;;;;4987918;28;95965;-59
2021/10/05 02:54:18;;;;;;;;;;;17.60;63.10;;;;;;4984879;28;95912;-59
2021/10/05 02:56:49;;;;;;;;;;;17.70;63.30;;;;;;4987525;28;96230;-59
2021/10/05 02:59:19;;;;;;;;;;;17.70;63.40;;;;;;4988070;28;95810;-48
2021/10/05 03:01:50;;;;;;;;;;;17.80;51.80;;;;;;4982948;28;96149;-60
2021/10/05 03:04:21;;;;;;;;;;;17.60;61.10;;;;;;4982177;28;95852;-60
2021/10/05 03:06:51;;;;;;;;;;;17.60;63.10;;;;;;4987109;28;96272;-60
2021/10/05 03:09:21;;;;;;;;;;;17.60;62.60;;;;;;4990196;28;95954;-58
2021/10/05 03:11:53;;;;;;;;;;;17.50;62.50;;;;;;4970623;28;95831;-56
2021/10/05 03:14:24;;;;;;;;;;;17.60;64.30;;;;;;4981784;28;96321;-57
2021/10/05 03:16:55;;;;;;;;;;;17.30;62.40;;;;;;4980844;28;95787;-54
2021/10/05 03:19:26;;;;;;;;;;;16.80;62.30;;;;;;4985388;28;96008;-57
2021/10/05 03:21:57;;;;;;;;;;;16.70;65.20;;;;;;4984114;28;95995;-49
2021/10/05 03:24:27;;;;;;;;;;;16.70;65.50;;;;;;4986622;28;96372;-48
2021/10/05 03:26:58;;;;;;;;;;;16.60;63.80;;;;;;4985941;28;95799;-50
2021/10/05 03:29:29;;;;;;;;;;;16.40;64.90;;;;;;4986005;28;95736;-50
2021/10/05 03:31:58;;;;;;;;;;;16.40;64.50;;;;;;4982791;28;97512;-52
2021/10/05 03:34:28;;;;;;;;;;;16.30;65.00;;;;;;5017862;27;95892;-53
2021/10/05 03:36:57;;;;;;;;;;;16.30;66.80;;;;;;4986685;28;95562;-56
2021/10/05 03:39:27;;;;;;;;;;;16.20;64.60;;;;;;4985858;28;95660;-55
2021/10/05 03:41:59;;;;;;;;;;;16.00;63.70;;;;;;4985577;28;95702;-47
2021/10/05 03:44:29;;;;;;;;;;;16.10;65.80;;;;;;4983201;28;96085;-57
2021/10/05 03:46:59;;;;;;;;;;;16.20;66.30;;;;;;4981338;28;96161;-55
2021/10/05 03:49:29;;;;;;;;;;;16.20;66.00;;;;;;4987515;28;95814;-55
2021/10/05 03:52:00;;;;;;;;;;;16.10;65.30;;;;;;4986586;28;95673;-54
2021/10/05 03:54:30;;;;;;;;;;;16.00;64.00;;;;;;4985752;28;95844;-57
2021/10/05 03:57:02;;;;;;;;;;;15.80;62.50;;;;;;4986805;28;95784;-56
2021/10/05 03:59:33;;;;;;;;;;;15.80;65.60;;;;;;4987059;28;96072;-48
2021/10/05 04:02:04;;;;;;;;;;;15.90;65.90;;;;;;4980984;28;96299;-56
2021/10/05 04:04:34;;;;;;;;;;;15.70;62.60;;;;;;4986166;28;95898;-57
2021/10/05 04:07:05;;;;;;;;;;;15.70;64.50;;;;;;4984782;28;95696;-57
2021/10/05 04:09:35;;;;;;;;;;;15.80;64.60;;;;;;4987049;28;95989;-48
2021/10/05 04:12:08;;;;;;;;;;;15.90;62.80;;;;;;4978987;28;95903;-55
2021/10/05 04:14:38;;;;;;;;;;;16.00;65.30;;;;;;4986196;28;95967;-47
2021/10/05 04:17:10;;;;;;;;;;;15.90;63.70;;;;;;4981718;28;97279;-46
2021/10/05 04:19:41;;;;;;;;;;;15.70;62.30;;;;;;4986433;28;95797;-56
2021/10/05 04:22:11;;;;;;;;;;;15.90;52.90;;;;;;4991222;28;95567;-47
2021/10/05 04:24:40;;;;;;;;;;;15.70;64.40;;;;;;4989827;28;95859;-56
2021/10/05 04:27:10;;;;;;;;;;;15.80;63.90;;;;;;4988580;28;96267;-46
2021/10/05 04:29:42;;;;;;;;;;;15.90;63.10;;;;;;4989592;28;96085;-55
2021/10/05 04:32:13;;;;;;;;;;;15.90;62.30;;;;;;4986640;28;95350;-52
2021/10/05 04:34:44;;;;;;;;;;;16.00;62.60;;;;;;4986638;28;95881;-54
2021/10/05 04:37:13;;;;;;;;;;;16.00;63.30;;;;;;4989456;28;95270;-46
2021/10/05 04:39:42;;;;;;;;;;;16.10;64.20;;;;;;4989419;28;95799;-56
2021/10/05 04:42:13;;;;;;;;;;;16.20;65.00;;;;;;4989628;28;97534;-51
2021/10/05 04:44:43;;;;;;;;;;;16.30;62.60;;;;;;4989395;28;96790;-56
2021/10/05 04:47:13;;;;;;;;;;;16.40;65.90;;;;;;4985203;28;96039;-58
2021/10/05 04:49:43;;;;;;;;;;;16.40;64.30;;;;;;4986508;28;95878;-47
2021/10/05 04:52:13;;;;;;;;;;;16.50;54.20;;;;;;4988274;28;96124;-58
2021/10/05 04:54:43;;;;;;;;;;;16.50;64.90;;;;;;4979957;28;96007;-47
2021/10/05 04:57:14;;;;;;;;;;;16.50;63.00;;;;;;4990443;28;96071;-49
2021/10/05 04:59:45;;;;;;;;;;;16.40;63.10;;;;;;4989085;28;95921;-56
2021/10/05 05:02:16;;;;;;;;;;;16.20;60.10;;;;;;4985923;28;95847;-56
2021/10/05 05:04:47;;;;;;;;;;;16.20;61.40;;;;;;4982547;28;96642;-57
2021/10/05 05:07:17;;;;;;;;;;;16.40;62.30;;;;;;4987536;28;95282;-56
2021/10/05 05:09:48;;;;;;;;;;;16.60;66.20;;;;;;4985014;28;95812;-58
2021/10/05 05:12:19;;;;;;;;;;;16.80;63.00;;;;;;4979146;28;95846;-59
2021/10/05 05:14:53;;;;;;;;;;;16.90;63.90;;;;;;4986500;28;96553;-57
2021/10/05 05:17:23;;;;;;;;;;;16.70;62.20;;;;;;4986144;28;95916;-49
2021/10/05 05:19:54;;;;;;;;;;;16.80;65.30;;;;;;4988220;28;96157;-46
2021/10/05 05:22:24;;;;;;;;;;;17.00;63.20;;;;;;4989892;28;95889;-47
2021/10/05 05:24:54;;;;;;;;;;;16.80;61.00;;;;;;4984818;28;97152;-56
2021/10/05 05:27:24;;;;;;;;;;;16.90;62.90;;;;;;4988218;28;95413;-56
2021/10/05 05:29:55;;;;;;;;;;;17.10;61.40;;;;;;4983128;28;95303;-45
2021/10/05 05:32:24;;;;;;;;;;;17.00;59.30;;;;;;4977765;28;95387;-46
2021/10/05 05:34:57;;;;;;;;;;;16.50;54.00;;;;;;4988819;28;96786;-46
2021/10/05 05:37:26;;;;;;;;;;;16.60;58.10;;;;;;4988051;28;95545;-47
2021/10/05 05:39:56;;;;;;;;;;;16.80;58.10;;;;;;4985332;28;95301;-47
2021/10/05 05:42:27;;;;;;;;;;;16.90;55.20;;;;;;4985352;28;96032;-46
2021/10/05 05:44:57;;;;;;;;;;;16.80;57.60;;;;;;4986849;28;95890;-56
2021/10/05 05:47:26;;;;;;;;;;;16.90;59.00;;;;;;4982990;28;95773;-56
2021/10/05 05:49:56;;;;;;;;;;;17.00;58.60;;;;;;4988749;28;95881;-58
2021/10/05 05:52:27;;;;;;;;;;;16.80;55.10;;;;;;4988260;28;98160;-48
2021/10/05 05:54:57;;;;;;;;;;;16.80;57.90;;;;;;4988368;28;95860;-58
2021/10/05 05:57:26;;;;;;;;;;;16.90;58.20;;;;;;4987006;28;98273;-56
2021/10/05 05:59:58;;;;;;;;;;;16.80;56.00;;;;;;4986810;28;95929;-48
2021/10/05 06:02:38;;;;;;;;;;;17.00;59.40;;;;;;5015019;27;95573;-50
2021/10/05 06:05:09;;;;;;;;;;;17.20;47.20;;;;;;5018370;27;95993;-57
2021/10/05 06:07:41;;;;;;;;;;;17.20;58.40;;;;;;4983720;28;96308;-55
2021/10/05 06:10:11;;;;;;;;;;;17.40;61.20;;;;;;4984677;28;95876;-55
2021/10/05 06:12:41;;;;;;;;;;;17.50;57.50;;;;;;4979063;28;95417;-49
2021/10/05 06:15:13;;;;;;;;;;;17.60;56.60;;;;;;4982056;28;95884;-56
2021/10/05 06:17:44;;;;;;;;;;;17.40;47.90;;;;;;4997025;28;102777;-48
2021/10/05 06:20:16;;;;;;;;;;;17.60;59.80;;;;;;4987244;28;97817;-48
2021/10/05 06:22:47;;;;;;;;;;;17.60;58.80;;;;;;4988174;28;95891;-50
2021/10/05 06:25:18;;;;;;;;;;;17.40;56.10;;;;;;4979086;28;95828;-56
2021/10/05 06:27:48;;;;;;;;;;;17.30;56.60;;;;;;4987179;28;95906;-48
2021/10/05 06:30:19;;;;;;;;;;;17.10;56.20;;;;;;4983528;28;96019;-57
2021/10/05 06:32:55;;;;;;;;;;;17.10;58.10;;;;;;4986664;28;95884;-56
2021/10/05 06:35:28;;;;;;;;;;;17.00;57.30;;;;;;4987538;28;95871;-57
2021/10/05 06:38:00;;;;;;;;;;;16.80;57.30;;;;;;4986177;28;97156;-57
2021/10/05 06:40:32;;;;;;;;;;;16.80;58.70;;;;;;4981302;28;95686;-49
2021/10/05 06:43:03;;;;;;;;;;;17.00;58.80;;;;;;4978597;28;95200;-49
2021/10/05 06:45:34;;;;;;;;;;;17.10;61.20;;;;;;4982570;28;95883;-57
2021/10/05 06:48:08;;;;;;;;;;;17.10;59.90;;;;;;4986916;28;95777;-55
2021/10/05 06:50:39;;;;;;;;;;;17.00;59.00;;;;;;4985246;28;95834;-49
2021/10/05 06:53:15;;;;;;;;;;;16.90;58.90;;;;;;4983597;28;95245;-55
2021/10/05 06:55:46;;;;;;;;;;;17.00;59.90;;;;;;4987492;28;96393;-57
2021/10/05 06:58:17;;;;;;;;;;;17.00;58.90;;;;;;4987161;28;96051;-52
2021/10/05 07:00:48;;;;;;;;;;;17.10;60.10;;;;;;4983145;28;97156;-56
2021/10/05 07:03:19;;;;;;;;;;;17.20;60.80;;;;;;4986962;28;96264;-58
2021/10/05 07:05:50;;;;;;;;;;;17.20;59.60;;;;;;4986064;28;96651;-48
2021/10/05 07:08:22;;;;;;;;;;;17.10;59.40;;;;;;4986085;28;95862;-56
2021/10/05 07:10:54;;;;;;;;;;;17.10;60.50;;;;;;4983485;28;95794;-56
2021/10/05 07:13:25;;;;;;;;;;;17.20;61.70;;;;;;4980337;28;95843;-59
2021/10/05 07:15:56;;;;;;;;;;;17.20;60.30;;;;;;4984914;28;95839;-47
2021/10/05 07:18:32;;;;;;;;;;;16.90;61.00;;;;;;4984069;28;95841;-58
2021/10/05 07:21:02;;;;;;;;;;;17.00;60.30;;;;;;4982967;28;95824;-58
2021/10/05 07:23:32;;;;;;;;;;;17.20;62.20;;;;;;4985146;28;95992;-47
2021/10/05 07:26:14;;;;;;;;;;;17.20;62.00;;;;;;4975052;28;96385;-58
2021/10/05 07:28:45;;;;;;;;;;;17.30;61.80;;;;;;4981651;28;95735;-58
2021/10/05 07:31:16;;;;;;;;;;;17.30;61.20;;;;;;4981691;28;95205;-47
2021/10/05 07:33:46;;;;;;;;;;;17.20;60.60;;;;;;4988494;28;95885;-48
2021/10/05 07:36:18;;;;;;;;;;;17.00;59.60;;;;;;4980630;28;95808;-57
2021/10/05 07:38:50;;;;;;;;;;;16.80;59.10;;;;;;4985434;28;95825;-47
2021/10/05 07:41:20;;;;;;;;;;;16.90;61.10;;;;;;4983514;28;96077;-47
2021/10/05 07:43:51;;;;;;;;;;;16.90;58.10;;;;;;4987164;28;95950;-47
2021/10/05 07:46:21;;;;;;;;;;;16.70;58.20;;;;;;4982003;28;96496;-59
2021/10/05 07:48:51;;;;;;;;;;;16.60;57.80;;;;;;4982568;28;95688;-58
2021/10/05 07:51:23;;;;;;;;;;;16.60;58.40;;;;;;4984228;28;95963;-48
2021/10/05 07:53:54;;;;;;;;;;;16.60;58.50;;;;;;4981998;28;95428;-58
2021/10/05 07:56:25;;;;;;;;;;;16.70;60.30;;;;;;4984884;28;95838;-57
2021/10/05 07:58:56;;;;;;;;;;;16.80;59.40;;;;;;4986500;28;95834;-48
2021/10/05 08:01:26;;;;;;;;;;;16.60;57.90;;;;;;4974256;28;96150;-59
2021/10/05 08:03:57;;;;;;;;;;;16.50;47.60;;;;;;4978657;28;95777;-58
2021/10/05 08:06:27;;;;;;;;;;;16.40;59.30;;;;;;4986554;28;96213;-51
2021/10/05 08:08:58;;;;;;;;;;;16.40;59.00;;;;;;4987145;28;95779;-58
2021/10/05 08:11:28;;;;;;;;;;;16.40;59.80;;;;;;4975722;28;95975;-59
2021/10/05 08:14:00;;;;;;;;;;;16.40;60.60;;;;;;4975759;28;95718;-59
2021/10/05 08:16:32;;;;;;;;;;;16.30;58.90;;;;;;4976291;28;95868;-58
2021/10/05 08:19:06;;;;;;;;;;;16.30;60.10;;;;;;4973909;28;95971;-58
2021/10/05 08:21:37;;;;;;;;;;;16.00;59.20;;;;;;4976371;28;95685;-59
2021/10/05 08:24:08;;;;;;;;;;;16.00;59.40;;;;;;4981537;28;95917;-49
2021/10/05 08:26:38;;;;;;;;;;;16.10;59.90;;;;;;4978502;28;96515;-59
2021/10/05 08:29:07;;;;;;;;;;;15.90;59.20;;;;;;4983243;28;95842;-58
2021/10/05 08:31:36;;;;;;;;;;;15.90;58.00;;;;;;4977257;28;98900;-49
2021/10/05 08:34:06;;;;;;;;;;;15.80;59.00;;;;;;4978082;28;95745;-58
2021/10/05 08:36:37;;;;;;;;;;;15.90;60.10;;;;;;4994110;28;95889;-49
2021/10/05 08:39:10;;;;;;;;;;;15.90;60.90;;;;;;5009839;27;95798;-58
2021/10/05 08:41:44;;;;;;;;;;;15.90;60.70;;;;;;4972570;28;95733;-57
2021/10/05 08:44:16;;;;;;;;;;;15.90;61.30;;;;;;4974838;28;95657;-48
2021/10/05 08:46:48;;;;;;;;;;;15.80;61.10;;;;;;4978095;28;96967;-58
2021/10/05 08:49:20;;;;;;;;;;;15.60;60.10;;;;;;4980548;28;97683;-59
2021/10/05 08:51:50;;;;;;;;;;;15.50;60.00;;;;;;4986336;28;95315;-50
2021/10/05 08:54:21;;;;;;;;;;;15.30;60.20;;;;;;4982238;28;95826;-57
2021/10/05 08:56:53;;;;;;;;;;;15.50;62.00;;;;;;5007702;27;98095;-57
2021/10/05 08:59:25;;;;;;;;;;;15.50;60.70;;;;;;4979033;28;96090;-59
2021/10/05 09:01:57;;;;;;;;;;;15.60;61.40;;;;;;4977840;28;95300;-59
2021/10/05 09:04:33;;;;;;;;;;;15.50;60.80;;;;;;4982353;28;95859;-61
2021/10/05 09:07:14;;;;;;;;;;;15.50;61.40;;;;;;4974636;28;96614;-58
2021/10/05 09:10:05;;;;;;;;;;;15.40;61.90;;;;;;4979388;28;95841;-59
2021/10/05 09:12:36;;;;;;;;;;;15.40;61.40;;;;;;4979553;28;101132;-48
2021/10/05 09:15:11;;;;;;;;;;;15.40;61.80;;;;;;4979473;28;95366;-58
2021/10/05 09:17:43;;;;;;;;;;;15.50;62.00;;;;;;5006284;27;96451;-48
2021/10/05 09:20:22;;;;;;;;;;;15.20;61.80;;;;;;4985987;28;95393;-59
2021/10/05 09:22:56;;;;;;;;;;;15.30;62.40;;;;;;4982697;28;96038;-50
2021/10/05 09:25:27;;;;;;;;;;;15.20;61.90;;;;;;4976851;28;95806;-60
2021/10/05 09:27:57;;;;;;;;;;;15.20;63.10;;;;;;4975686;28;96051;-60
2021/10/05 09:30:27;;;;;;;;;;;15.30;64.60;;;;;;4972735;28;95964;-47
2021/10/05 09:32:57;;;;;;;;;;;15.40;63.60;;;;;;4973706;28;95254;-60
2021/10/05 09:35:27;;;;;;;;;;;15.40;63.40;;;;;;4974408;28;95912;-61
2021/10/05 09:38:09;;;;;;;;;;;15.30;62.80;;;;;;4975752;28;95854;-60
2021/10/05 09:40:40;;;;;;;;;;;15.40;64.60;;;;;;4971723;28;95444;-60
2021/10/05 09:43:18;;;;;;;;;;;15.40;65.00;;;;;;4971868;28;96032;-60
2021/10/05 09:45:49;;;;;;;;;;;15.30;63.70;;;;;;4973015;28;95883;-60
2021/10/05 09:48:19;;;;;;;;;;;15.20;64.80;;;;;;4973762;28;96717;-60
2021/10/05 09:50:50;;;;;;;;;;;15.10;64.10;;;;;;4974680;28;97386;-50
2021/10/05 09:53:21;;;;;;;;;;;15.20;65.00;;;;;;4977509;28;96030;-61
2021/10/05 09:55:52;;;;;;;;;;;15.10;64.40;;;;;;4975941;28;95637;-61
2021/10/05 09:58:25;;;;;;;;;;;15.00;63.20;;;;;;4978056;28;96491;-60
2021/10/05 10:00:56;;;;;;;;;;;15.00;64.70;;;;;;4970261;28;95760;-61
2021/10/05 10:03:27;;;;;;;;;;;15.00;65.00;;;;;;4975882;28;95313;-62
2021/10/05 10:05:59;;;;;;;;;;;14.90;64.60;;;;;;4976094;28;96433;-60
2021/10/05 10:08:33;;;;;;;;;;;15.00;65.60;;;;;;4973896;28;96079;-60
2021/10/05 10:11:06;;;;;;;;;;;15.00;65.90;;;;;;4972768;28;96065;-60
2021/10/05 10:13:46;;;;;;;;;;;15.10;68.40;;;;;;4972291;28;95937;-60
2021/10/05 10:16:18;;;;;;;;;;;15.40;69.40;;;;;;4977793;28;96735;-61
2021/10/05 10:18:51;;;;;;;;;;;15.70;70.00;;;;;;4980576;28;96501;-62
2021/10/05 10:21:26;;;;;;;;;;;15.90;69.60;;;;;;4979132;28;96362;-61
2021/10/05 10:24:10;;;;;;;;;;;16.10;69.30;;;;;;4981836;28;96353;-62
2021/10/05 10:26:48;;;;;;;;;;;16.20;69.40;;;;;;4979301;28;96611;-51
2021/10/05 10:29:38;;;;;;;;;;;16.40;69.30;;;;;;4980827;28;97189;-61
2021/10/05 10:32:09;;;;;;;;;;;16.50;69.00;;;;;;4977504;28;95366;-52
2021/10/05 10:34:40;;;;;;;;;;;16.50;69.00;;;;;;4981431;28;95390;-62
2021/10/05 10:37:11;;;;;;;;;;;16.50;69.10;;;;;;4981223;28;95778;-52
2021/10/05 10:39:43;;;;;;;;;;;16.60;68.70;;;;;;4980073;28;96600;-50
2021/10/05 10:42:28;;;;;;;;;;;16.60;68.90;;;;;;4980426;28;97009;-61
2021/10/05 10:45:10;;;;;;;;;;;16.60;68.80;;;;;;5012215;27;95446;-61
2021/10/05 10:47:43;;;;;;;;;;;16.70;68.70;;;;;;4984482;28;96152;-61
2021/10/05 10:50:16;;;;;;;;;;;16.70;68.60;;;;;;4985223;28;96105;-52
2021/10/05 10:52:51;;;;;;;;;;;16.80;63.20;;;;;;4985542;28;95785;-53
2021/10/05 10:55:32;;;;;;;;;;;16.70;68.60;;;;;;4986926;28;96159;-51
2021/10/05 10:58:05;;;;;;;;;;;16.70;68.60;;;;;;4987265;28;96614;-51
2021/10/05 11:00:48;;;;;;;;;;;16.70;68.70;;;;;;4978027;28;95976;-50
2021/10/05 11:03:27;;;;;;;;;;;16.80;68.70;;;;;;4966810;28;96079;-50
2021/10/05 11:06:00;;;;;;;;;;;16.70;68.50;;;;;;4969162;28;95902;-51
2021/10/05 11:08:38;;;;;;;;;;;16.80;68.30;;;;;;4970607;28;96216;-61
2021/10/05 11:11:09;;;;;;;;;;;16.80;68.20;;;;;;4963748;28;95943;-61
2021/10/05 11:13:46;;;;;;;;;;;17.00;68.10;;;;;;4966778;28;96134;-63
2021/10/05 11:16:22;;;;;;;;;;;17.10;68.00;;;;;;4961519;28;96207;-54
2021/10/05 11:19:03;;;;;;;;;;;17.20;67.70;;;;;;4969600;28;95932;-56
2021/10/05 11:21:34;;;;;;;;;;;17.30;67.60;;;;;;4968509;28;96107;-63
2021/10/05 11:24:04;;;;;;;;;;;17.50;67.20;;;;;;4970146;28;95770;-61
2021/10/05 11:26:37;;;;;;;;;;;17.60;66.90;;;;;;4971459;28;95746;-62
2021/10/05 11:29:06;;;;;;;;;;;17.80;66.70;;;;;;4971056;28;95779;-62
2021/10/05 11:31:42;;;;;;;;;;;17.90;66.60;;;;;;4967112;28;98100;-62
2021/10/05 11:34:13;;;;;;;;;;;18.00;67.10;;;;;;4969245;28;96368;-60
2021/10/05 11:36:44;;;;;;;;;;;18.10;66.20;;;;;;4970543;28;95823;-56
2021/10/05 11:39:25;;;;;;;;;;;18.20;66.00;;;;;;4970083;28;95770;-51
2021/10/05 11:42:00;;;;;;;;;;;18.30;65.90;;;;;;4968820;28;95822;-60
2021/10/05 11:44:30;;;;;;;;;;;18.50;65.70;;;;;;4969516;28;96438;-54
2021/10/05 11:47:02;;;;;;;;;;;18.60;65.50;;;;;;4964654;28;96046;-52
2021/10/05 11:49:36;;;;;;;;;;;18.70;66.10;;;;;;4969238;28;95615;-53
2021/10/05 11:52:11;;;;;;;;;;;18.80;65.30;;;;;;4968179;28;95875;-53
2021/10/05 11:54:41;;;;;;;;;;;18.80;65.00;;;;;;4968168;28;96085;-55
2021/10/05 11:57:15;;;;;;;;;;;19.00;64.90;;;;;;4968798;28;95869;-55
2021/10/05 11:59:46;;;;;;;;;;;19.00;64.80;;;;;;4969923;28;95867;-52
2021/10/05 12:02:22;;;;;;;;;;;19.10;64.60;;;;;;4963855;28;96415;-51
2021/10/05 12:04:54;;;;;;;;;;;19.20;64.60;;;;;;4968441;28;95889;-54
2021/10/05 12:07:33;;;;;;;;;;;19.20;64.30;;;;;;4967430;28;96026;-55
2021/10/05 12:10:08;;;;;;;;;;;19.30;64.10;;;;;;4966223;28;96437;-54
2021/10/05 12:12:40;;;;;;;;;;;19.40;64.10;;;;;;4991374;28;97352;-52
2021/10/05 12:15:13;;;;;;;;;;;19.50;55.90;;;;;;4965481;28;96576;-50
2021/10/05 12:18:06;;;;;;;;;;;19.60;63.90;;;;;;4969206;28;96061;-51
2021/10/05 12:21:01;;;;;;;;;;;19.60;63.70;;;;;;4968262;28;95239;-52
2021/10/05 12:23:30;;;;;;;;;;;19.70;62.80;;;;;;4964605;28;96173;-51
2021/10/05 12:26:09;;;;;;;;;;;19.60;61.40;;;;;;4967291;28;95951;-53
2021/10/05 12:28:39;;;;;;;;;;;19.50;62.10;;;;;;4968336;28;96022;-53
2021/10/05 12:31:12;;;;;;;;;;;19.50;62.60;;;;;;4963545;28;95990;-49
2021/10/05 12:34:02;;;;;;;;;;;19.60;62.70;;;;;;4965275;28;98858;-52
2021/10/05 12:36:33;;;;;;;;;;;19.60;62.50;;;;;;4968345;28;95550;-51
2021/10/05 12:39:12;;;;;;;;;;;19.60;62.80;;;;;;4999120;28;95934;-49
2021/10/05 12:41:56;;;;;;;;;;;19.60;62.80;;;;;;4968227;28;95543;-54
2021/10/05 12:44:26;;;;;;;;;;;19.60;62.90;;;;;;5001554;28;96567;-51
2021/10/05 12:47:00;;;;;;;;;;;19.60;63.00;;;;;;4966614;28;96371;-51
2021/10/05 12:49:32;;;;;;;;;;;19.60;62.80;;;;;;4971366;28;95947;-53
2021/10/05 12:52:03;;;;;;;;;;;19.40;61.00;;;;;;4970636;28;95794;-55
2021/10/05 12:54:34;;;;;;;;;;;19.20;61.80;;;;;;4968810;28;95826;-54
2021/10/05 12:57:06;;;;;;;;;;;19.10;62.10;;;;;;4967391;28;95733;-51
2021/10/05 12:59:37;;;;;;;;;;;19.10;62.30;;;;;;4970954;28;97089;-51
2021/10/05 13:02:07;;;;;;;;;;;19.00;62.40;;;;;;4982949;28;95280;-52
2021/10/05 13:04:38;;;;;;;;;;;18.90;62.70;;;;;;4990053;28;96510;-51
2021/10/05 13:07:09;;;;;;;;;;;18.70;62.80;;;;;;4990253;28;95946;-62
2021/10/05 13:09:39;;;;;;;;;;;18.70;62.90;;;;;;5021444;28;95842;-54
2021/10/05 13:12:09;;;;;;;;;;;18.50;63.30;;;;;;4980172;28;95963;-50
2021/10/05 13:14:42;;;;;;;;;;;18.50;64.00;;;;;;4988113;28;97250;-52
2021/10/05 13:17:14;;;;;;;;;;;18.40;63.50;;;;;;4985875;28;95994;-50
2021/10/05 13:19:44;;;;;;;;;;;18.40;63.70;;;;;;4989428;28;95928;-52
2021/10/05 13:22:14;;;;;;;;;;;18.30;63.90;;;;;;4991194;28;95641;-50
2021/10/05 13:24:45;;;;;;;;;;;18.20;64.00;;;;;;4990283;28;96546;-50
2021/10/05 13:27:14;;;;;;;;;;;18.10;64.40;;;;;;4990244;28;95655;-51
2021/10/05 13:29:44;;;;;;;;;;;18.00;64.90;;;;;;4988338;28;96524;-53
2021/10/05 13:32:13;;;;;;;;;;;17.90;65.20;;;;;;4985855;28;95756;-61
2021/10/05 13:34:43;;;;;;;;;;;17.80;65.50;;;;;;4990687;28;96740;-48
2021/10/05 13:37:12;;;;;;;;;;;17.80;65.90;;;;;;5021115;28;96285;-47
2021/10/05 13:39:42;;;;;;;;;;;17.70;66.00;;;;;;4992269;28;95219;-48
2021/10/05 13:42:12;;;;;;;;;;;17.60;66.20;;;;;;4993035;28;95509;-48
2021/10/05 13:44:43;;;;;;;;;;;17.60;66.50;;;;;;4992019;28;95811;-48
2021/10/05 13:47:13;;;;;;;;;;;17.50;66.60;;;;;;4984422;28;95963;-50
2021/10/05 13:49:43;;;;;;;;;;;17.50;66.80;;;;;;5020450;28;96053;-49
2021/10/05 13:52:14;;;;;;;;;;;17.40;66.90;;;;;;4992691;28;96379;-49
2021/10/05 13:54:46;;;;;;;;;;;17.40;67.00;;;;;;4989774;28;98076;-53
2021/10/05 13:57:16;;;;;;;;;;;17.30;67.30;;;;;;4991321;28;95338;-50
2021/10/05 13:59:48;;;;;;;;;;;17.30;67.40;;;;;;4993084;28;95785;-50
2021/10/05 14:02:19;;;;;;;;;;;17.20;67.50;;;;;;4988596;28;95633;-50
2021/10/05 14:04:50;;;;;;;;;;;17.20;67.60;;;;;;4988059;28;95893;-47
2021/10/05 14:07:21;;;;;;;;;;;17.20;67.80;;;;;;4991008;28;96024;-50
2021/10/05 14:09:52;;;;;;;;;;;17.10;67.80;;;;;;4988501;28;99504;-48
2021/10/05 14:12:22;;;;;;;;;;;17.10;68.00;;;;;;4982668;28;95871;-47
2021/10/05 14:14:53;;;;;;;;;;;17.10;68.00;;;;;;4991540;28;95965;-47
2021/10/05 14:17:23;;;;;;;;;;;17.00;68.10;;;;;;4983582;28;95940;-48
2021/10/05 14:19:54;;;;;;;;;;;17.00;68.10;;;;;;4989834;28;95835;-47
2021/10/05 14:22:23;;;;;;;;;;;17.00;68.20;;;;;;4992088;28;95498;-47
2021/10/05 14:24:53;;;;;;;;;;;16.90;68.30;;;;;;4991502;28;96001;-48
2021/10/05 14:27:26;;;;;;;;;;;16.90;68.40;;;;;;5021344;28;95849;-48
2021/10/05 14:29:57;;;;;;;;;;;16.90;68.40;;;;;;4990665;28;95841;-49
2021/10/05 14:32:28;;;;;;;;;;;16.90;68.60;;;;;;4990295;28;95874;-49
2021/10/05 14:34:57;;;;;;;;;;;16.80;68.60;;;;;;4991532;28;96403;-48
2021/10/05 14:37:26;;;;;;;;;;;16.80;68.80;;;;;;4991609;28;95862;-47
2021/10/05 14:39:58;;;;;;;;;;;16.80;68.80;;;;;;4990545;28;95714;-49
2021/10/05 14:42:28;;;;;;;;;;;16.80;68.90;;;;;;4991514;28;95905;-49
2021/10/05 14:44:59;;;;;;;;;;;16.70;68.90;;;;;;4987895;28;98061;-50
2021/10/05 14:47:30;;;;;;;;;;;16.70;69.00;;;;;;5019964;28;96213;-50